Rp Zug — HE7351 — position and weather

sailwx.info

Track history (hours):
 
Tides and Currents Weather Stations Pressure Air Temp Water Temp Dewpoint Dewpoint Depression Visibility Wind Speed Wind Dir Waves Ship Positions

Rp Zug

Last reported at 2015-Jul-07 13:33 UTC. Time now 2015-Jul-08 06:30 UTC.
Position N 49°16' E 008°27'.

Length 110 m; draft 2.7 m.

Type: Tanker. MMSI: 269057351.

Date/timePositionNaut miles runAvg speedWind from/ knotsBaromVisibWave heightAir tempDewpointWater temp
2015-Jul-07 13:33N 49°16' E 008°27'9 9.2
2015-Jul-07 12:33N 49°07' E 008°22'3 3.4
2015-Jul-07 11:33N 49°04' E 008°20'0 0.0
2015-Jul-07 10:33N 49°04' E 008°20'0 0.0
2015-Jul-07 09:33N 49°04' E 008°20'0 0.0
2015-Jul-07 08:33N 49°04' E 008°20'0 0.0
2015-Jul-07 07:33N 49°04' E 008°20'0 0.0
2015-Jul-07 06:33N 49°04' E 008°20'0 0.0
2015-Jul-07 05:33N 49°04' E 008°20'0 0.0
2015-Jul-07 04:33N 49°04' E 008°20'0 0.0
2015-Jul-07 03:33N 49°04' E 008°20'0 0.0
2015-Jul-07 02:33N 49°04' E 008°20'0 0.0
2015-Jul-07 01:33N 49°04' E 008°20'0 0.3
2015-Jul-07 00:33N 49°04' E 008°20'0 0.0
2015-Jul-06 23:33N 49°04' E 008°20'0 0.0
2015-Jul-06 22:33N 49°04' E 008°20'0 0.0
2015-Jul-06 21:33N 49°04' E 008°20'0 0.0
2015-Jul-06 20:32N 49°04' E 008°20'0 0.0
2015-Jul-06 19:33N 49°04' E 008°20'0 0.0
2015-Jul-06 18:33N 49°04' E 008°20'0 0.3
2015-Jul-06 17:33N 49°05' E 008°20'18 7.6
2015-Jul-06 15:15N 48°50' E 008°07'5 6.6
2015-Jul-06 14:30N 48°46' E 008°01'7 7.0
2015-Jul-06 13:33N 48°41' E 007°55'0 0.0
2015-Jul-05 02:33N 48°41' E 007°54'4 3.9
2015-Jul-05 01:33N 48°44' E 007°58'14 4.8
2015-Jul-04 22:33N 48°56' E 008°10'4 3.9
2015-Jul-04 21:30N 48°59' E 008°15'4 4.2
2015-Jul-04 20:33N 49°02' E 008°18'5 4.6
2015-Jul-04 19:33N 49°06' E 008°22'4 4.4
2015-Jul-04 18:33N 49°10' E 008°22'4 4.3
2015-Jul-04 17:33N 49°14' E 008°24'5 4.8
2015-Jul-04 16:33N 49°18' E 008°29'4 3.7
2015-Jul-04 15:32N 49°21' E 008°29'104 4.2
2015-Jul-03 14:26N 50°49' E 007°02'3 3.2
2015-Jul-03 13:29N 50°52' E 007°02'3 3.2
2015-Jul-03 12:26N 50°55' E 006°58'10 4.5
2015-Jul-03 10:10N 51°04' E 006°52'2 3.7
2015-Jul-03 09:33N 51°07' E 006°53'3 3.3
2015-Jul-03 08:33N 51°09' E 006°49'4 3.8
2015-Jul-03 07:33N 51°11' E 006°44'3 3.2
2015-Jul-03 06:33N 51°14' E 006°46'4 4.1
2015-Jul-03 05:33N 51°18' E 006°44'13 3.8
2015-Jul-03 02:03N 51°31' E 006°43'3 5.0
2015-Jul-03 01:33N 51°33' E 006°41'4 3.6
2015-Jul-03 00:33N 51°35' E 006°36'16 4.6
2015-Jul-02 21:11N 51°47' E 006°19'18 3.5
2015-Jul-02 16:07N 51°51' E 005°51'5 6.7
2015-Jul-02 15:24N 51°53' E 005°44'13 6.1
2015-Jul-02 13:18N 51°50' E 005°24'4 5.2
2015-Jul-02 12:33N 51°49' E 005°18'8 6.9
2015-Jul-02 11:20N 51°50' E 005°04'4 4.7
2015-Jul-02 10:32N 51°50' E 004°58'6 6.1
2015-Jul-02 09:33N 51°49' E 004°49'8 7.9
2015-Jul-02 08:33N 51°48' E 004°36'8 7.5
2015-Jul-02 07:33N 51°51' E 004°24'7 7.1
2015-Jul-02 06:33N 51°54' E 004°14'2 2.4
2015-Jul-02 05:33N 51°56' E 004°12'0 0.0
2015-Jul-02 04:33N 51°56' E 004°12'0 0.0
2015-Jul-02 03:33N 51°56' E 004°12'0 0.0
2015-Jul-02 02:33N 51°56' E 004°12'0 0.0
2015-Jul-02 01:33N 51°56' E 004°12'0 0.0
2015-Jul-02 00:33N 51°56' E 004°12'0 0.0
2015-Jul-01 23:33N 51°56' E 004°12'1 1.1
2015-Jul-01 22:33N 51°55' E 004°13'5 4.4
2015-Jul-01 21:28N 51°52' E 004°19'0 0.0
2015-Jul-01 15:22N 51°52' E 004°19'0 0.0
2015-Jul-01 14:25N 51°52' E 004°19'0 0.0
2015-Jul-01 13:33N 51°52' E 004°19'0 0.0
2015-Jul-01 12:33N 51°52' E 004°19'0 0.0
2015-Jul-01 11:33N 51°52' E 004°19'0 0.0
2015-Jul-01 10:33N 51°52' E 004°19'0 0.0
2015-Jul-01 09:33N 51°52' E 004°19'0 0.0
2015-Jul-01 08:31N 51°52' E 004°19'0 0.0
2015-Jul-01 07:33N 51°52' E 004°19'0 0.0
2015-Jul-01 06:28N 51°52' E 004°19'0 0.1
2015-Jul-01 05:33N 51°52' E 004°19'1 0.7
2015-Jul-01 04:33N 51°52' E 004°18'0 0.0
2015-Jul-01 03:33N 51°52' E 004°18'0 0.0
2015-Jul-01 02:33N 51°52' E 004°18'0 0.0
2015-Jul-01 01:33N 51°52' E 004°18'0 0.0
2015-Jul-01 00:33N 51°52' E 004°18'0 0.0
2015-Jun-30 23:33N 51°52' E 004°18'0 0.0
2015-Jun-30 22:33N 51°52' E 004°18'0 0.0
2015-Jun-30 21:33N 51°52' E 004°18'0 0.0
2015-Jun-30 20:33N 51°52' E 004°18'3 2.8
2015-Jun-30 19:33N 51°53' E 004°22'0 0.2
2015-Jun-30 18:33N 51°53' E 004°22'0 0.0
2015-Jun-30 17:33N 51°53' E 004°22'0 0.0
2015-Jun-30 16:33N 51°53' E 004°22'0 0.0
2015-Jun-30 15:33N 51°53' E 004°22'0 0.0
2015-Jun-30 14:33N 51°53' E 004°22'0 0.0
2015-Jun-30 13:33N 51°53' E 004°22'0 0.0
2015-Jun-30 12:33N 51°53' E 004°22'0 0.0
2015-Jun-30 11:33N 51°53' E 004°22'0 0.0
2015-Jun-30 10:33N 51°53' E 004°22'0 0.0
2015-Jun-30 09:33N 51°53' E 004°22'1 0.8
2015-Jun-30 08:33N 51°54' E 004°23'2 1.7
2015-Jun-30 07:33N 51°55' E 004°25'3 3.3
2015-Jun-30 06:33N 51°55' E 004°30'8 7.9
2015-Jun-30 05:34N 51°50' E 004°40'9 9.2
2015-Jun-30 04:33N 51°50' E 004°55'11 9.9
2015-Jun-30 03:29N 51°49' E 005°12'18 9.0
2015-Jun-30 01:30N 51°54' E 005°40'12 8.5
2015-Jun-30 00:03N 51°53' E 006°00'10 6.5
2015-Jun-29 22:31N 51°50' E 006°15'37 7.1
2015-Jun-29 17:18N 51°17' E 006°42'5 6.1
2015-Jun-29 16:33N 51°12' E 006°44'4 3.6
2015-Jun-29 15:33N 51°10' E 006°48'15 7.2
2015-Jun-29 13:30N 50°56' E 006°58'7 0.7
2015-Jun-29 03:24N 50°49' E 007°00'0 0.0
2015-Jun-28 22:04N 50°49' E 007°00'0 0.1
2015-Jun-28 14:25N 50°49' E 006°60'0 0.0
2015-Jun-28 13:30N 50°49' E 006°60'0 0.0
2015-Jun-28 12:29N 50°49' E 006°60'0 0.0
2015-Jun-28 11:28N 50°49' E 006°60'0 0.0
2015-Jun-28 10:31N 50°49' E 006°60'0 0.0
2015-Jun-28 09:27N 50°49' E 006°60'0 0.0
2015-Jun-28 08:29N 50°49' E 006°60'104 7.8
2015-Jun-27 19:03N 49°23' E 008°30'5 9.2
2015-Jun-27 18:33N 49°18' E 008°29'1111.1
2015-Jun-27 17:33N 49°08' E 008°22'1211.8
2015-Jun-27 16:33N 48°58' E 008°14'9 9.3
2015-Jun-27 15:33N 48°50' E 008°07'7 7.1
2015-Jun-27 14:34N 48°45' E 007°58'  
Track history (hours):
 
Tides and Currents Weather Stations Pressure Air Temp Water Temp Dewpoint Dewpoint Depression Visibility Wind Speed Wind Dir Waves Ship Positions

Rp Zug

Last reported at 2015-Jul-07 13:33 UTC. Time now 2015-Jul-08 06:30 UTC.
Position N 49°16' E 008°27'.

Length 110 m; draft 2.7 m.

Type: Tanker. MMSI: 269057351.

Date/timePositionNaut miles runAvg speedWind from/ knotsBaromVisibWave heightAir tempDewpointWater temp
2015-Jul-07 13:33N 49°16' E 008°27'9 9.2
2015-Jul-07 12:33N 49°07' E 008°22'3 3.4
2015-Jul-07 11:33N 49°04' E 008°20'0 0.0
2015-Jul-07 10:33N 49°04' E 008°20'0 0.0
2015-Jul-07 09:33N 49°04' E 008°20'0 0.0
2015-Jul-07 08:33N 49°04' E 008°20'0 0.0
2015-Jul-07 07:33N 49°04' E 008°20'0 0.0
2015-Jul-07 06:33N 49°04' E 008°20'0 0.0
2015-Jul-07 05:33N 49°04' E 008°20'0 0.0
2015-Jul-07 04:33N 49°04' E 008°20'0 0.0
2015-Jul-07 03:33N 49°04' E 008°20'0 0.0
2015-Jul-07 02:33N 49°04' E 008°20'0 0.0
2015-Jul-07 01:33N 49°04' E 008°20'0 0.3
2015-Jul-07 00:33N 49°04' E 008°20'0 0.0
2015-Jul-06 23:33N 49°04' E 008°20'0 0.0
2015-Jul-06 22:33N 49°04' E 008°20'0 0.0
2015-Jul-06 21:33N 49°04' E 008°20'0 0.0
2015-Jul-06 20:32N 49°04' E 008°20'0 0.0
2015-Jul-06 19:33N 49°04' E 008°20'0 0.0
2015-Jul-06 18:33N 49°04' E 008°20'0 0.3
2015-Jul-06 17:33N 49°05' E 008°20'18 7.6
2015-Jul-06 15:15N 48°50' E 008°07'5 6.6
2015-Jul-06 14:30N 48°46' E 008°01'7 7.0
2015-Jul-06 13:33N 48°41' E 007°55'0 0.0
2015-Jul-05 02:33N 48°41' E 007°54'4 3.9
2015-Jul-05 01:33N 48°44' E 007°58'14 4.8
2015-Jul-04 22:33N 48°56' E 008°10'4 3.9
2015-Jul-04 21:30N 48°59' E 008°15'4 4.2
2015-Jul-04 20:33N 49°02' E 008°18'5 4.6
2015-Jul-04 19:33N 49°06' E 008°22'4 4.4
2015-Jul-04 18:33N 49°10' E 008°22'4 4.3
2015-Jul-04 17:33N 49°14' E 008°24'5 4.8
2015-Jul-04 16:33N 49°18' E 008°29'4 3.7
2015-Jul-04 15:32N 49°21' E 008°29'104 4.2
2015-Jul-03 14:26N 50°49' E 007°02'3 3.2
2015-Jul-03 13:29N 50°52' E 007°02'3 3.2
2015-Jul-03 12:26N 50°55' E 006°58'10 4.5
2015-Jul-03 10:10N 51°04' E 006°52'2 3.7
2015-Jul-03 09:33N 51°07' E 006°53'3 3.3
2015-Jul-03 08:33N 51°09' E 006°49'4 3.8
2015-Jul-03 07:33N 51°11' E 006°44'3 3.2
2015-Jul-03 06:33N 51°14' E 006°46'4 4.1
2015-Jul-03 05:33N 51°18' E 006°44'13 3.8
2015-Jul-03 02:03N 51°31' E 006°43'3 5.0
2015-Jul-03 01:33N 51°33' E 006°41'4 3.6
2015-Jul-03 00:33N 51°35' E 006°36'16 4.6
2015-Jul-02 21:11N 51°47' E 006°19'18 3.5
2015-Jul-02 16:07N 51°51' E 005°51'5 6.7
2015-Jul-02 15:24N 51°53' E 005°44'13 6.1
2015-Jul-02 13:18N 51°50' E 005°24'4 5.2
2015-Jul-02 12:33N 51°49' E 005°18'8 6.9
2015-Jul-02 11:20N 51°50' E 005°04'4 4.7
2015-Jul-02 10:32N 51°50' E 004°58'6 6.1
2015-Jul-02 09:33N 51°49' E 004°49'8 7.9
2015-Jul-02 08:33N 51°48' E 004°36'8 7.5
2015-Jul-02 07:33N 51°51' E 004°24'7 7.1
2015-Jul-02 06:33N 51°54' E 004°14'2 2.4
2015-Jul-02 05:33N 51°56' E 004°12'0 0.0
2015-Jul-02 04:33N 51°56' E 004°12'0 0.0
2015-Jul-02 03:33N 51°56' E 004°12'0 0.0
2015-Jul-02 02:33N 51°56' E 004°12'0 0.0
2015-Jul-02 01:33N 51°56' E 004°12'0 0.0
2015-Jul-02 00:33N 51°56' E 004°12'0 0.0
2015-Jul-01 23:33N 51°56' E 004°12'1 1.1
2015-Jul-01 22:33N 51°55' E 004°13'5 4.4
2015-Jul-01 21:28N 51°52' E 004°19'0 0.0
2015-Jul-01 15:22N 51°52' E 004°19'0 0.0
2015-Jul-01 14:25N 51°52' E 004°19'0 0.0
2015-Jul-01 13:33N 51°52' E 004°19'0 0.0
2015-Jul-01 12:33N 51°52' E 004°19'0 0.0
2015-Jul-01 11:33N 51°52' E 004°19'0 0.0
2015-Jul-01 10:33N 51°52' E 004°19'0 0.0
2015-Jul-01 09:33N 51°52' E 004°19'0 0.0
2015-Jul-01 08:31N 51°52' E 004°19'0 0.0
2015-Jul-01 07:33N 51°52' E 004°19'0 0.0
2015-Jul-01 06:28N 51°52' E 004°19'0 0.1
2015-Jul-01 05:33N 51°52' E 004°19'1 0.7
2015-Jul-01 04:33N 51°52' E 004°18'0 0.0
2015-Jul-01 03:33N 51°52' E 004°18'0 0.0
2015-Jul-01 02:33N 51°52' E 004°18'0 0.0
2015-Jul-01 01:33N 51°52' E 004°18'0 0.0
2015-Jul-01 00:33N 51°52' E 004°18'0 0.0
2015-Jun-30 23:33N 51°52' E 004°18'0 0.0
2015-Jun-30 22:33N 51°52' E 004°18'0 0.0
2015-Jun-30 21:33N 51°52' E 004°18'0 0.0
2015-Jun-30 20:33N 51°52' E 004°18'3 2.8
2015-Jun-30 19:33N 51°53' E 004°22'0 0.2
2015-Jun-30 18:33N 51°53' E 004°22'0 0.0
2015-Jun-30 17:33N 51°53' E 004°22'0 0.0
2015-Jun-30 16:33N 51°53' E 004°22'0 0.0
2015-Jun-30 15:33N 51°53' E 004°22'0 0.0
2015-Jun-30 14:33N 51°53' E 004°22'0 0.0
2015-Jun-30 13:33N 51°53' E 004°22'0 0.0
2015-Jun-30 12:33N 51°53' E 004°22'0 0.0
2015-Jun-30 11:33N 51°53' E 004°22'0 0.0
2015-Jun-30 10:33N 51°53' E 004°22'0 0.0
2015-Jun-30 09:33N 51°53' E 004°22'1 0.8
2015-Jun-30 08:33N 51°54' E 004°23'2 1.7
2015-Jun-30 07:33N 51°55' E 004°25'3 3.3
2015-Jun-30 06:33N 51°55' E 004°30'8 7.9
2015-Jun-30 05:34N 51°50' E 004°40'9 9.2
2015-Jun-30 04:33N 51°50' E 004°55'11 9.9
2015-Jun-30 03:29N 51°49' E 005°12'18 9.0
2015-Jun-30 01:30N 51°54' E 005°40'12 8.5
2015-Jun-30 00:03N 51°53' E 006°00'10 6.5
2015-Jun-29 22:31N 51°50' E 006°15'37 7.1
2015-Jun-29 17:18N 51°17' E 006°42'5 6.1
2015-Jun-29 16:33N 51°12' E 006°44'4 3.6
2015-Jun-29 15:33N 51°10' E 006°48'15 7.2
2015-Jun-29 13:30N 50°56' E 006°58'7 0.7
2015-Jun-29 03:24N 50°49' E 007°00'0 0.0
2015-Jun-28 22:04N 50°49' E 007°00'0 0.1
2015-Jun-28 14:25N 50°49' E 006°60'0 0.0
2015-Jun-28 13:30N 50°49' E 006°60'0 0.0
2015-Jun-28 12:29N 50°49' E 006°60'0 0.0
2015-Jun-28 11:28N 50°49' E 006°60'0 0.0
2015-Jun-28 10:31N 50°49' E 006°60'0 0.0
2015-Jun-28 09:27N 50°49' E 006°60'0 0.0
2015-Jun-28 08:29N 50°49' E 006°60'104 7.8
2015-Jun-27 19:03N 49°23' E 008°30'5 9.2
2015-Jun-27 18:33N 49°18' E 008°29'1111.1
2015-Jun-27 17:33N 49°08' E 008°22'1211.8
2015-Jun-27 16:33N 48°58' E 008°14'9 9.3
2015-Jun-27 15:33N 48°50' E 008°07'7 7.1
2015-Jun-27 14:34N 48°45' E 007°58'  

Dump ship's entire track history